Time;durP1;ratioP1;P1;durP2;ratioP2;P2;SDS_P1;SDS_P2;PMS_P1;PMS_P2;Temp;Humidity;BMP_temperature;BMP_pressure;BME280_temperature;BME280_humidity;BME280_pressure;Samples;Min_cycle;Max_cycle;Signal;HPM_P1;HPM_P2
2022/06/11 04:25:39;;;;;;;16.00;15.10;;;14.40;99.90;;;;;;5217147;23;20508;-73
2022/06/11 04:28:06;;;;;;;14.97;13.87;;;14.80;99.90;;;;;;4979446;28;21178;-73
2022/06/11 04:30:32;;;;;;;15.40;14.40;;;15.10;99.90;;;;;;4972169;28;20877;-73
2022/06/11 04:32:59;;;;;;;14.97;14.13;;;15.30;99.90;;;;;;4982663;28;20467;-74
2022/06/11 04:35:26;;;;;;;14.10;13.40;;;15.60;99.90;;;;;;4971953;28;20463;-74
2022/06/11 04:37:52;;;;;;;14.63;13.83;;;15.80;99.90;;;;;;4971874;28;20462;-74
2022/06/11 04:40:19;;;;;;;14.77;13.90;;;16.00;99.90;;;;;;4971948;28;20456;-74
2022/06/11 04:42:47;;;;;;;14.27;13.47;;;16.30;99.90;;;;;;4972083;28;20455;-74
2022/06/11 04:45:16;;;;;;;14.30;13.50;;;16.50;99.90;;;;;;4972132;28;20482;-75
2022/06/11 04:47:43;;;;;;;14.43;13.60;;;16.60;99.90;;;;;;4971969;28;20860;-73
2022/06/11 04:50:12;;;;;;;13.57;12.87;;;16.70;99.90;;;;;;4971909;28;20448;-74
2022/06/11 04:52:39;;;;;;;13.67;13.13;;;16.90;99.90;;;;;;4971672;28;20825;-74
2022/06/11 04:55:06;;;;;;;13.40;12.23;;;16.90;99.90;;;;;;4970975;28;20858;-74
2022/06/11 04:57:33;;;;;;;14.30;13.40;;;17.00;99.90;;;;;;4971704;28;20463;-74
2022/06/11 05:00:01;;;;;;;14.23;13.43;;;17.00;99.90;;;;;;4971884;28;20500;-74
2022/06/11 05:02:28;;;;;;;14.30;13.50;;;17.10;99.90;;;;;;4971854;28;20451;-75
2022/06/11 05:04:55;;;;;;;13.50;12.80;;;17.20;99.90;;;;;;4971823;28;20460;-76
2022/06/11 05:07:22;;;;;;;13.47;12.60;;;17.30;99.90;;;;;;4971773;28;20459;-75
2022/06/11 05:09:49;;;;;;;12.80;12.00;;;17.30;99.90;;;;;;4971698;28;20538;-75
2022/06/11 05:12:16;;;;;;;12.97;12.10;;;17.50;99.90;;;;;;4971614;28;20458;-75
2022/06/11 05:14:43;;;;;;;12.60;12.00;;;17.60;99.90;;;;;;4971933;28;20462;-76
2022/06/11 05:17:11;;;;;;;13.50;12.80;;;17.80;99.90;;;;;;4971613;28;20460;-75
2022/06/11 05:19:38;;;;;;;13.57;12.87;;;18.10;99.90;;;;;;4971248;28;20491;-75
2022/06/11 05:22:05;;;;;;;12.60;12.00;;;18.20;99.90;;;;;;4971484;28;20459;-75
2022/06/11 05:24:32;;;;;;;13.43;12.60;;;18.20;99.90;;;;;;4970984;28;20479;-74
2022/06/11 05:27:02;;;;;;;13.60;12.87;;;18.30;99.90;;;;;;4971683;28;20467;-75
2022/06/11 05:29:33;;;;;;;12.43;11.83;;;18.40;99.90;;;;;;4971532;28;20969;-75
2022/06/11 05:32:00;;;;;;;12.57;12.00;;;18.50;99.90;;;;;;4973503;28;20825;-74
2022/06/11 05:34:30;;;;;;;12.70;12.10;;;18.50;99.90;;;;;;4979927;28;20447;-74
2022/06/11 05:36:57;;;;;;;12.23;11.63;;;18.70;99.90;;;;;;4971239;28;20458;-71
2022/06/11 05:39:24;;;;;;;12.63;11.93;;;18.80;99.90;;;;;;4970864;28;21044;-74
2022/06/11 05:41:51;;;;;;;11.83;11.20;;;18.70;99.90;;;;;;4971415;28;20462;-73
2022/06/11 05:44:18;;;;;;;12.70;12.10;;;18.90;99.90;;;;;;4971180;28;20541;-73
2022/06/11 05:46:45;;;;;;;13.20;12.50;;;19.10;99.90;;;;;;4971614;28;20455;-73
2022/06/11 05:49:17;;;;;;;13.10;12.17;;;19.60;99.90;;;;;;4971332;28;20455;-72
2022/06/11 05:51:49;;;;;;;13.10;12.33;;;19.90;99.90;;;;;;4971510;28;20791;-72
2022/06/11 05:54:20;;;;;;;12.60;12.03;;;20.00;99.90;;;;;;4971319;28;20462;-70
2022/06/11 05:56:47;;;;;;;12.90;12.30;;;20.20;99.90;;;;;;4971485;28;20819;-72
2022/06/11 05:59:20;;;;;;;13.00;12.40;;;20.00;99.90;;;;;;4984949;28;20494;-72
2022/06/11 06:01:47;;;;;;;12.70;12.10;;;20.40;99.90;;;;;;4990551;28;20453;-72
2022/06/11 06:04:14;;;;;;;12.60;11.70;;;20.70;99.90;;;;;;4990912;28;20451;-70
2022/06/11 06:06:41;;;;;;;13.00;12.40;;;21.30;99.90;;;;;;4994278;28;20446;-70
2022/06/11 06:09:09;;;;;;;12.53;11.90;;;21.70;99.40;;;;;;4994318;28;20799;-72
2022/06/11 06:11:36;;;;;;;12.77;12.17;;;22.00;99.30;;;;;;4994177;28;20450;-71
2022/06/11 06:14:02;;;;;;;13.23;12.43;;;22.50;97.30;;;;;;4994159;28;20454;-72
2022/06/11 06:16:30;;;;;;;12.83;12.03;;;22.80;96.70;;;;;;4994232;28;20457;-72
2022/06/11 06:18:59;;;;;;;12.57;11.97;;;22.90;95.80;;;;;;4994185;28;20487;-71
2022/06/11 06:21:29;;;;;;;12.50;11.90;;;23.10;95.90;;;;;;4994229;28;20470;-74
2022/06/11 06:23:56;;;;;;;12.57;11.87;;;23.10;95.10;;;;;;4994064;28;20481;-72
2022/06/11 06:26:24;;;;;;;12.20;11.60;;;23.10;95.00;;;;;;4993284;28;20522;-75
2022/06/11 06:28:51;;;;;;;13.00;12.40;;;22.90;95.50;;;;;;4993713;28;20864;-75
2022/06/11 06:31:19;;;;;;;12.57;11.97;;;23.00;95.30;;;;;;4994096;28;21011;-74
2022/06/11 06:33:46;;;;;;;13.27;12.60;;;23.50;94.80;;;;;;4987326;28;20474;-74
2022/06/11 06:36:14;;;;;;;12.97;12.30;;;23.90;93.70;;;;;;4981991;28;20791;-74
2022/06/11 06:38:42;;;;;;;13.67;12.50;;;23.90;93.40;;;;;;4974060;28;20563;-74
2022/06/11 06:41:09;;;;;;;13.70;12.90;;;24.50;92.80;;;;;;4974454;28;20447;-73
2022/06/11 06:43:37;;;;;;;13.67;12.73;;;24.80;92.00;;;;;;4974276;28;20458;-73
2022/06/11 06:46:04;;;;;;;13.03;12.13;;;25.30;91.60;;;;;;4974173;28;20470;-74
2022/06/11 06:48:31;;;;;;;12.93;12.23;;;26.00;90.40;;;;;;4974096;28;20967;-73
2022/06/11 06:50:59;;;;;;;12.97;12.27;;;26.20;88.00;;;;;;4974168;28;20451;-73
2022/06/11 06:53:26;;;;;;;13.33;12.50;;;26.20;87.80;;;;;;4974232;28;20478;-72
2022/06/11 06:55:53;;;;;;;12.27;11.70;;;26.20;87.60;;;;;;4973871;28;20455;-73
2022/06/11 06:58:20;;;;;;;13.27;12.37;;;25.90;88.40;;;;;;4989737;28;20514;-74
2022/06/11 07:00:48;;;;;;;11.77;11.37;;;25.80;89.90;;;;;;4993177;28;20490;-74
2022/06/11 07:03:15;;;;;;;13.47;12.57;;;25.60;89.70;;;;;;4993337;28;20458;-78
2022/06/11 07:05:44;;;;;;;12.20;11.57;;;25.80;88.80;;;;;;4993213;28;20793;-78
2022/06/11 07:08:12;;;;;;;12.90;12.00;;;25.60;89.40;;;;;;4993111;28;20458;-78
2022/06/11 07:10:38;;;;;;;12.70;11.80;;;25.80;89.10;;;;;;4992656;28;20443;-78
2022/06/11 07:13:05;;;;;;;12.70;12.20;;;26.00;88.60;;;;;;4993736;28;20462;-80
2022/06/11 07:15:32;;;;;;;12.70;12.20;;;26.30;87.00;;;;;;4994359;28;20462;-86
2022/06/11 07:18:05;;;;;;;13.17;12.57;;;26.40;87.10;;;;;;4991067;28;20454;-85
2022/06/11 07:20:35;;;;;;;13.20;12.60;;;26.20;87.50;;;;;;4993335;28;20511;-84
2022/06/11 07:23:05;;;;;;;12.70;12.07;;;26.20;87.50;;;;;;4993043;28;20471;-85
2022/06/11 07:25:32;;;;;;;12.90;12.20;;;26.20;86.70;;;;;;4992555;28;20487;-86
2022/06/11 07:28:03;;;;;;;13.33;12.63;;;26.10;87.20;;;;;;4993701;28;20458;-84
2022/06/11 07:30:33;;;;;;;12.83;12.27;;;26.10;87.40;;;;;;4993097;28;20991;-86
2022/06/11 07:33:05;;;;;;;13.00;12.23;;;26.00;87.60;;;;;;4992978;28;20454;-83
2022/06/11 07:35:33;;;;;;;13.33;12.83;;;26.50;86.90;;;;;;4993147;28;20458;-84
2022/06/11 07:37:59;;;;;;;13.73;13.03;;;27.10;85.20;;;;;;4992678;28;20459;-83
2022/06/11 07:40:26;;;;;;;13.90;13.20;;;27.70;82.80;;;;;;4993401;28;20494;-86
2022/06/11 07:42:53;;;;;;;13.40;12.90;;;28.00;82.50;;;;;;4992711;28;20455;-86
2022/06/11 07:45:20;;;;;;;13.50;12.70;;;27.80;81.60;;;;;;4992489;28;20451;-84
2022/06/11 07:47:56;;;;;;;13.43;12.83;;;28.30;81.40;;;;;;4992299;28;20454;-85
2022/06/11 07:50:26;;;;;;;14.00;13.30;;;28.70;78.60;;;;;;4992332;28;20446;-86
2022/06/11 07:52:53;;;;;;;13.70;13.10;;;29.20;76.70;;;;;;4995167;28;20462;-86
2022/06/11 07:55:21;;;;;;;13.60;12.90;;;28.90;78.10;;;;;;4992747;28;20451;-85
2022/06/11 07:57:48;;;;;;;13.50;12.93;;;29.30;76.60;;;;;;4992111;28;20467;-85
2022/06/11 08:00:18;;;;;;;14.50;13.63;;;29.90;74.10;;;;;;4992268;28;21020;-85
2022/06/11 08:02:45;;;;;;;13.33;12.67;;;30.00;73.30;;;;;;4992222;28;20446;-87
2022/06/11 08:05:12;;;;;;;13.57;12.90;;;30.30;73.30;;;;;;4993830;28;20458;-87
2022/06/11 08:07:40;;;;;;;13.37;12.67;;;31.10;70.00;;;;;;4993486;28;20451;-87
2022/06/11 08:10:08;;;;;;;14.10;13.60;;;31.20;68.90;;;;;;4991660;28;20993;-85
2022/06/11 08:12:35;;;;;;;13.93;13.20;;;31.40;67.80;;;;;;4991558;28;20459;-85
2022/06/11 08:15:01;;;;;;;14.07;13.37;;;31.90;65.90;;;;;;4991836;28;20514;-85
2022/06/11 08:17:29;;;;;;;13.87;13.37;;;32.80;62.40;;;;;;4993003;28;20454;-88
2022/06/11 08:19:56;;;;;;;14.50;13.70;;;32.70;61.00;;;;;;4995236;28;20471;-88
2022/06/11 08:22:24;;;;;;;14.23;13.50;;;32.10;58.70;;;;;;4992472;28;20457;-85
2022/06/11 08:24:52;;;;;;;13.33;12.63;;;32.00;57.50;;;;;;4991366;28;20486;-85
2022/06/11 08:27:18;;;;;;;14.87;13.87;;;32.50;56.70;;;;;;4991523;28;20482;-86
2022/06/11 08:29:46;;;;;;;13.80;13.30;;;33.10;55.50;;;;;;4992069;28;20462;-84
2022/06/11 08:32:13;;;;;;;13.70;13.00;;;34.10;53.70;;;;;;4992950;28;20462;-84
2022/06/11 08:34:42;;;;;;;14.57;13.80;;;34.30;52.40;;;;;;4991430;28;20813;-85
2022/06/11 08:37:09;;;;;;;14.20;13.50;;;34.10;52.90;;;;;;4991350;28;20821;-82
2022/06/11 08:39:36;;;;;;;14.27;13.60;;;33.40;53.40;;;;;;4990917;28;20479;-86
2022/06/11 08:42:07;;;;;;;13.73;13.20;;;33.60;52.80;;;;;;4991536;28;20454;-85
2022/06/11 08:44:37;;;;;;;14.70;13.90;;;33.60;52.70;;;;;;4991422;28;20857;-85
2022/06/11 08:47:08;;;;;;;14.37;13.77;;;34.20;50.50;;;;;;4991192;28;20458;-85
2022/06/11 08:49:43;;;;;;;13.47;12.93;;;34.50;49.00;;;;;;4991181;28;20941;-85
2022/06/11 08:52:15;;;;;;;13.33;12.80;;;35.20;47.70;;;;;;4991428;28;20465;-84
2022/06/11 08:54:44;;;;;;;14.57;13.90;;;34.70;47.70;;;;;;4990894;28;20522;-84
2022/06/11 08:57:25;;;;;;;14.20;13.50;;;34.90;47.50;;;;;;4991467;28;20451;-84
2022/06/11 09:00:05;;;;;;;15.40;14.80;;;34.80;48.00;;;;;;4990978;28;20758;-85
2022/06/11 09:02:46;;;;;;;14.97;14.03;;;35.60;46.70;;;;;;4990985;28;20541;-85
2022/06/11 09:05:26;;;;;;;15.13;14.27;;;34.60;48.00;;;;;;4991074;28;20466;-84
2022/06/11 09:08:04;;;;;;;14.73;14.10;;;35.10;47.60;;;;;;4990945;28;20473;-84
2022/06/11 09:10:52;;;;;;;13.37;12.77;;;35.00;46.70;;;;;;4990867;28;20449;-85
2022/06/11 09:13:36;;;;;;;13.80;13.20;;;35.00;47.20;;;;;;4990952;28;20457;-84
2022/06/11 09:16:15;;;;;;;15.00;14.27;;;35.40;46.10;;;;;;4991209;28;20442;-84
2022/06/11 09:18:57;;;;;;;14.40;13.77;;;35.40;44.80;;;;;;4990920;28;20450;-85
2022/06/11 09:21:39;;;;;;;13.27;12.73;;;34.30;46.30;;;;;;4991032;28;20509;-84
2022/06/11 09:24:21;;;;;;;14.73;14.10;;;34.70;45.40;;;;;;4991303;28;20502;-84
2022/06/11 09:26:56;;;;;;;15.33;14.53;;;34.50;44.90;;;;;;4992322;28;20493;-85
2022/06/11 09:29:29;;;;;;;13.90;13.30;;;34.30;46.60;;;;;;4991438;28;20937;-84
2022/06/11 09:32:03;;;;;;;14.13;13.33;;;34.70;44.60;;;;;;4990928;28;20451;-84
2022/06/11 09:34:38;;;;;;;14.73;14.13;;;33.50;46.30;;;;;;4993356;28;20451;-83
2022/06/11 09:37:13;;;;;;;14.40;13.60;;;34.00;45.30;;;;;;4991243;28;20553;-82
2022/06/11 09:39:43;;;;;;;13.73;13.13;;;33.90;46.30;;;;;;5002127;28;20482;-83
2022/06/11 09:42:41;;;;;;;14.47;13.83;;;34.40;45.60;;;;;;4996250;28;20494;-84
2022/06/11 09:45:18;;;;;;;14.97;14.17;;;35.20;43.90;;;;;;4994578;28;20454;-84
2022/06/11 09:47:54;;;;;;;14.47;13.83;;;35.40;44.50;;;;;;4994985;28;20955;-84
2022/06/11 09:50:25;;;;;;;14.43;13.80;;;35.50;44.10;;;;;;4994582;28;20787;-84
2022/06/11 09:53:04;;;;;;;14.40;13.80;;;36.50;42.20;;;;;;4995777;28;21073;-84
2022/06/11 09:55:39;;;;;;;14.37;13.83;;;36.80;41.90;;;;;;4994423;28;20450;-84
2022/06/11 09:58:15;;;;;;;14.73;14.13;;;36.80;42.00;;;;;;4994580;28;20454;-84
2022/06/11 10:00:47;;;;;;;14.67;14.03;;;36.90;41.40;;;;;;4994458;28;20485;-84
2022/06/11 10:03:29;;;;;;;15.03;14.23;;;37.50;40.40;;;;;;4994992;28;20548;-82
2022/06/11 10:05:59;;;;;;;14.10;13.50;;;37.90;39.50;;;;;;4998328;28;20454;-82
2022/06/11 10:08:36;;;;;;;14.17;13.50;;;37.90;39.50;;;;;;4995721;28;20442;-81
2022/06/11 10:11:06;;;;;;;15.37;14.60;;;38.70;39.20;;;;;;4994467;28;20469;-80
2022/06/11 10:13:42;;;;;;;15.63;14.73;;;38.70;37.80;;;;;;4994863;28;20827;-83
2022/06/11 10:16:30;;;;;;;14.83;14.23;;;38.50;38.40;;;;;;4994854;28;20454;-85
2022/06/11 10:19:06;;;;;;;15.00;14.40;;;38.40;38.40;;;;;;4998297;28;20482;-81
2022/06/11 10:21:34;;;;;;;15.40;14.40;;;38.50;37.90;;;;;;4995154;28;20847;-86
2022/06/11 10:24:05;;;;;;;15.27;14.53;;;37.70;38.60;;;;;;4997750;28;20478;-88
2022/06/11 10:26:37;;;;;;;14.10;13.43;;;37.00;39.20;;;;;;4994602;28;20485;-86
2022/06/11 10:29:12;;;;;;;14.00;13.40;;;36.60;39.40;;;;;;4998164;28;20457;-87
2022/06/11 10:31:46;;;;;;;13.87;13.27;;;36.00;40.30;;;;;;4997390;28;20450;-85
2022/06/11 10:34:19;;;;;;;14.90;14.30;;;35.30;41.30;;;;;;4997408;28;20460;-80
2022/06/11 10:36:52;;;;;;;14.43;13.83;;;35.40;42.50;;;;;;4994653;28;20454;-82
2022/06/11 10:39:24;;;;;;;15.87;15.07;;;36.60;41.30;;;;;;4994135;28;20455;-83
2022/06/11 10:42:01;;;;;;;15.30;14.60;;;37.20;39.60;;;;;;4993925;28;20486;-84
2022/06/11 10:44:37;;;;;;;14.73;14.03;;;37.70;38.40;;;;;;4994025;28;20509;-82
2022/06/11 10:47:15;;;;;;;15.90;15.20;;;37.70;38.80;;;;;;4993857;28;20446;-84
2022/06/11 10:49:42;;;;;;;15.13;14.53;;;36.20;39.40;;;;;;4994019;28;20521;-83
2022/06/11 10:52:22;;;;;;;15.00;14.20;;;35.80;40.60;;;;;;4992316;28;20447;-83
2022/06/11 10:54:49;;;;;;;15.10;14.37;;;36.10;41.30;;;;;;4993759;28;20457;-84
2022/06/11 10:57:22;;;;;;;14.83;14.23;;;35.90;40.00;;;;;;4993898;28;20450;-84
2022/06/11 10:59:54;;;;;;;13.63;13.00;;;35.50;41.30;;;;;;4993915;28;20490;-85
2022/06/11 11:02:29;;;;;;;14.40;13.60;;;36.00;40.90;;;;;;4993741;28;20803;-85
2022/06/11 11:04:59;;;;;;;14.13;13.50;;;36.80;39.80;;;;;;4993521;28;20453;-83
2022/06/11 11:07:26;;;;;;;15.30;14.60;;;37.90;39.10;;;;;;4993575;28;20451;-83
2022/06/11 11:09:58;;;;;;;15.40;14.70;;;37.90;38.20;;;;;;4993451;28;20466;-84
2022/06/11 11:12:28;;;;;;;15.53;14.90;;;36.70;38.90;;;;;;4993646;28;21012;-86
2022/06/11 11:15:11;;;;;;;15.30;14.40;;;36.40;39.20;;;;;;4993466;28;20458;-84
2022/06/11 11:17:46;;;;;;;15.10;14.50;;;35.10;41.20;;;;;;4993686;28;20469;-84
2022/06/11 11:20:30;;;;;;;14.30;13.60;;;34.30;42.70;;;;;;4993576;28;20474;-83
2022/06/11 11:23:00;;;;;;;15.67;14.77;;;34.30;42.80;;;;;;4993379;28;20469;-85
2022/06/11 11:25:32;;;;;;;15.00;14.30;;;34.60;42.30;;;;;;4993592;28;20483;-84
2022/06/11 11:27:59;;;;;;;14.20;13.63;;;33.70;43.40;;;;;;4993579;28;20463;-83
2022/06/11 11:30:32;;;;;;;14.40;13.60;;;32.90;45.30;;;;;;4993713;28;20450;-84
2022/06/11 11:33:21;;;;;;;14.10;13.30;;;31.80;45.50;;;;;;4993452;28;20438;-81
2022/06/11 11:35:48;;;;;;;13.57;12.87;;;31.40;47.30;;;;;;4993280;28;20478;-83
2022/06/11 11:38:21;;;;;;;13.50;12.83;;;30.70;48.10;;;;;;4993090;28;20454;-82
2022/06/11 11:40:53;;;;;;;13.63;12.97;;;30.20;49.00;;;;;;4993038;28;20488;-81
2022/06/11 11:43:22;;;;;;;14.50;13.60;;;29.60;50.10;;;;;;4993080;28;20455;-82
2022/06/11 11:45:57;;;;;;;14.20;13.40;;;30.50;49.20;;;;;;4993120;28;20961;-83
2022/06/11 11:48:30;;;;;;;14.03;13.07;;;31.50;47.90;;;;;;4993910;28;20446;-83
2022/06/11 11:51:02;;;;;;;13.40;12.77;;;31.20;48.20;;;;;;4993006;28;20447;-81
2022/06/11 11:53:35;;;;;;;13.90;13.30;;;32.10;47.30;;;;;;4993266;28;20455;-84
2022/06/11 11:56:05;;;;;;;14.57;13.70;;;32.90;46.40;;;;;;4992996;28;20532;-80
2022/06/11 11:58:34;;;;;;;14.50;13.80;;;33.30;45.70;;;;;;4992636;28;20458;-80
2022/06/11 12:01:07;;;;;;;14.00;13.27;;;33.90;44.60;;;;;;4992489;28;20529;-82
2022/06/11 12:03:39;;;;;;;14.50;13.90;;;35.00;42.80;;;;;;4992238;28;20506;-80
2022/06/11 12:06:08;;;;;;;14.17;13.37;;;35.40;42.20;;;;;;4992777;28;20443;-82
2022/06/11 12:08:41;;;;;;;14.10;13.60;;;35.30;41.60;;;;;;4992336;28;20461;-81
2022/06/11 12:11:08;;;;;;;13.73;13.23;;;35.80;41.20;;;;;;4992351;28;20537;-81
2022/06/11 12:13:46;;;;;;;14.00;13.43;;;35.80;41.20;;;;;;4992390;28;20455;-81
2022/06/11 12:16:19;;;;;;;14.53;13.73;;;36.50;40.90;;;;;;4992355;28;20968;-82
2022/06/11 12:18:51;;;;;;;14.30;13.60;;;37.00;40.70;;;;;;4992570;28;20867;-81
2022/06/11 12:21:21;;;;;;;14.50;13.70;;;37.30;39.90;;;;;;4992384;28;20731;-81
2022/06/11 12:23:52;;;;;;;14.97;14.27;;;36.70;39.20;;;;;;4992137;28;20483;-76
2022/06/11 12:26:21;;;;;;;14.17;13.27;;;36.10;40.40;;;;;;4992275;28;20482;-84
2022/06/11 12:28:53;;;;;;;14.40;13.60;;;36.50;40.60;;;;;;4993446;28;20447;-83
2022/06/11 12:31:20;;;;;;;15.33;14.73;;;36.40;40.40;;;;;;4994006;28;20482;-83
2022/06/11 12:33:51;;;;;;;14.77;14.23;;;35.90;40.80;;;;;;4997894;28;20466;-85
2022/06/11 12:36:39;;;;;;;14.20;13.70;;;35.40;41.70;;;;;;5003394;28;20454;-82
2022/06/11 12:39:16;;;;;;;14.80;14.17;;;35.60;41.70;;;;;;5011212;28;20450;-82
2022/06/11 12:41:51;;;;;;;15.50;14.80;;;36.20;40.30;;;;;;5014115;28;20474;-83
2022/06/11 12:44:34;;;;;;;14.03;13.43;;;35.90;40.30;;;;;;5009584;28;20455;-82
2022/06/11 12:47:17;;;;;;;14.30;13.77;;;35.80;40.30;;;;;;5004904;28;20482;-84
2022/06/11 12:49:51;;;;;;;14.20;13.60;;;36.00;39.60;;;;;;5002576;28;20450;-76
2022/06/11 12:52:26;;;;;;;14.50;13.80;;;36.10;40.10;;;;;;4997544;28;20453;-85
2022/06/11 12:55:22;;;;;;;14.47;13.87;;;36.00;40.20;;;;;;4992042;28;20454;-83
2022/06/11 12:57:57;;;;;;;15.30;14.50;;;36.90;39.30;;;;;;4991317;28;20972;-83
2022/06/11 13:00:43;;;;;;;14.80;14.17;;;37.60;38.30;;;;;;4991338;28;20486;-85
2022/06/11 13:03:41;;;;;;;14.70;14.20;;;36.90;38.70;;;;;;4991346;28;20463;-85
2022/06/11 13:06:33;;;;;;;15.37;14.67;;;37.20;38.20;;;;;;4991249;28;20462;-83
2022/06/11 13:09:14;;;;;;;14.30;13.70;;;37.10;39.30;;;;;;4991104;28;20814;-83
2022/06/11 13:11:54;;;;;;;13.93;13.33;;;36.60;39.70;;;;;;4991052;28;20841;-83
2022/06/11 13:14:47;;;;;;;15.10;14.10;;;36.90;40.10;;;;;;4991633;28;20819;-83
2022/06/11 13:17:26;;;;;;;14.37;13.67;;;36.20;40.10;;;;;;4991263;28;20825;-85
2022/06/11 13:20:02;;;;;;;14.50;14.00;;;36.10;40.80;;;;;;4991037;28;20478;-84
2022/06/11 13:22:40;;;;;;;15.10;14.47;;;37.10;39.30;;;;;;4990995;28;20494;-83
2022/06/11 13:25:22;;;;;;;14.83;14.20;;;37.00;39.60;;;;;;4990599;28;21017;-83
2022/06/11 13:28:00;;;;;;;14.90;14.20;;;37.80;38.10;;;;;;4990775;28;20956;-83
2022/06/11 13:30:44;;;;;;;15.80;15.10;;;37.50;38.00;;;;;;4991041;28;20806;-82
2022/06/11 13:33:29;;;;;;;14.97;14.20;;;38.00;36.90;;;;;;4991030;28;20451;-82
2022/06/11 13:36:05;;;;;;;15.40;14.60;;;38.80;37.40;;;;;;4990909;28;20465;-83
2022/06/11 13:38:44;;;;;;;16.27;15.47;;;37.70;37.30;;;;;;4992574;28;20457;-82
2022/06/11 13:41:16;;;;;;;15.33;14.60;;;36.90;38.60;;;;;;4990881;28;20482;-83
2022/06/11 13:44:10;;;;;;;14.27;13.67;;;36.00;38.90;;;;;;4991124;28;20462;-83
2022/06/11 13:46:48;;;;;;;14.30;13.77;;;35.50;40.70;;;;;;4990721;28;21000;-84
2022/06/11 13:49:46;;;;;;;15.10;14.40;;;35.70;40.80;;;;;;4991337;28;20808;-85
2022/06/11 13:55:10;;;;;;;14.23;13.60;;;36.00;39.90;;;;;;4991182;28;20557;-83
2022/06/11 13:55:13;;;;;;;14.50;13.90;;;35.90;40.20;;;;;;4988946;28;20501;-84
2022/06/11 13:58:03;;;;;;;15.00;14.30;;;35.90;39.90;;;;;;4990671;28;20461;-85
2022/06/11 14:00:46;;;;;;;14.67;13.97;;;35.20;41.00;;;;;;4990793;28;20820;-85
2022/06/11 14:04:00;;;;;;;15.00;14.23;;;33.80;42.40;;;;;;4990721;28;20459;-85
2022/06/11 14:06:29;;;;;;;14.07;13.37;;;33.30;42.70;;;;;;4991017;28;20494;-84
2022/06/11 14:10:20;;;;;;;15.03;14.23;;;32.40;43.70;;;;;;4990438;28;20470;-83
2022/06/11 14:11:57;;;;;;;14.07;13.27;;;31.80;44.60;;;;;;4990353;28;20447;-84
2022/06/11 14:14:38;;;;;;;13.90;13.20;;;31.40;45.50;;;;;;4990280;28;20451;-85
2022/06/11 14:17:38;;;;;;;14.17;13.57;;;31.10;46.80;;;;;;4990669;28;20427;-85
2022/06/11 14:20:20;;;;;;;13.13;12.73;;;31.20;46.70;;;;;;4990291;28;20521;-82
2022/06/11 14:22:50;;;;;;;13.50;12.80;;;32.30;45.10;;;;;;4990132;28;21019;-82
2022/06/11 14:25:39;;;;;;;14.90;14.00;;;33.50;43.40;;;;;;4990433;28;20490;-82
2022/06/11 14:28:43;;;;;;;13.63;13.13;;;34.50;41.80;;;;;;4994053;28;20449;-82
2022/06/11 14:31:12;;;;;;;13.90;13.20;;;34.90;42.00;;;;;;4993557;28;20472;-81
2022/06/11 14:33:42;;;;;;;14.23;13.63;;;35.00;41.80;;;;;;4993647;28;20465;-82
2022/06/11 14:36:23;;;;;;;13.73;13.03;;;35.60;41.20;;;;;;4993784;28;20443;-81
2022/06/11 14:38:52;;;;;;;13.67;13.00;;;35.50;40.80;;;;;;4993627;28;20454;-81
2022/06/11 14:41:41;;;;;;;14.40;13.70;;;34.70;40.60;;;;;;4993200;28;20478;-82
2022/06/11 14:44:29;;;;;;;13.87;13.27;;;34.50;41.80;;;;;;4993637;28;20458;-82
2022/06/11 14:47:01;;;;;;;14.07;13.20;;;34.60;42.00;;;;;;4993575;28;20538;-82
2022/06/11 14:49:44;;;;;;;14.10;13.40;;;33.70;43.40;;;;;;4993622;28;20953;-82
2022/06/11 14:52:45;;;;;;;13.10;12.27;;;32.70;44.40;;;;;;4991132;28;20944;-82
2022/06/11 14:55:23;;;;;;;13.13;12.53;;;32.90;44.80;;;;;;4993556;28;20810;-82
2022/06/11 14:57:58;;;;;;;13.63;12.63;;;32.30;45.60;;;;;;4993223;28;20450;-82
2022/06/11 15:00:41;;;;;;;13.07;12.40;;;31.80;46.00;;;;;;4993323;28;20458;-82
2022/06/11 15:03:43;;;;;;;13.23;12.73;;;30.80;47.80;;;;;;4993136;28;20522;-82
2022/06/11 15:06:33;;;;;;;13.43;12.87;;;30.30;48.90;;;;;;4993380;28;20458;-82
2022/06/11 15:09:44;;;;;;;13.87;12.97;;;30.20;50.30;;;;;;4993339;28;20454;-82
2022/06/11 15:12:50;;;;;;;13.73;13.03;;;30.60;49.60;;;;;;4993035;28;20443;-82
2022/06/11 15:15:36;;;;;;;13.93;13.13;;;30.50;49.00;;;;;;4993073;28;20442;-82
2022/06/11 15:18:13;;;;;;;13.13;12.53;;;29.70;50.00;;;;;;4993016;28;20443;-83
2022/06/11 15:20:47;;;;;;;13.70;12.40;;;29.30;50.40;;;;;;4995013;28;21014;-82
2022/06/11 15:23:17;;;;;;;13.20;12.60;;;29.00;50.90;;;;;;4993574;28;20499;-74
2022/06/11 15:25:46;;;;;;;12.60;12.10;;;28.80;52.10;;;;;;4993069;28;20558;-81
2022/06/11 15:28:13;;;;;;;13.50;12.80;;;28.70;51.80;;;;;;4993288;28;20979;-81
2022/06/11 15:30:41;;;;;;;14.00;13.20;;;28.50;52.00;;;;;;4993051;28;21116;-81
2022/06/11 15:33:19;;;;;;;13.90;13.13;;;28.60;52.60;;;;;;4993014;28;20481;-81
2022/06/11 15:35:59;;;;;;;13.37;12.87;;;28.60;52.50;;;;;;4993347;28;20455;-81
2022/06/11 15:38:32;;;;;;;13.17;12.57;;;28.60;52.20;;;;;;4992508;28;20453;-80
2022/06/11 15:41:01;;;;;;;13.40;12.60;;;28.40;53.40;;;;;;4993517;28;20451;-81
2022/06/11 15:43:33;;;;;;;12.63;12.03;;;28.40;53.60;;;;;;4993193;28;21030;-81
2022/06/11 15:46:03;;;;;;;13.20;12.60;;;28.20;54.00;;;;;;4993160;28;20833;-82
2022/06/11 15:48:34;;;;;;;13.20;12.40;;;28.00;54.40;;;;;;4992904;28;20461;-80
2022/06/11 15:51:05;;;;;;;12.30;11.80;;;27.90;54.60;;;;;;4993108;28;20550;-82
2022/06/11 15:55:11;;;;;;;12.47;11.77;;;27.80;54.80;;;;;;4992695;28;20861;-82
2022/06/11 15:56:28;;;;;;;13.00;12.30;;;27.60;55.10;;;;;;4992597;28;20443;-81
2022/06/11 15:59:06;;;;;;;12.67;12.10;;;27.50;54.90;;;;;;4992523;28;20455;-81
2022/06/11 16:01:33;;;;;;;12.97;12.30;;;27.40;55.30;;;;;;4993102;28;20474;-80
2022/06/11 16:04:00;;;;;;;12.67;12.17;;;27.40;55.50;;;;;;4992899;28;20455;-80
2022/06/11 16:06:30;;;;;;;13.00;12.33;;;27.50;55.80;;;;;;4992695;28;20450;-81
2022/06/11 16:09:01;;;;;;;12.80;12.10;;;27.60;56.10;;;;;;4992479;28;20462;-80
2022/06/11 16:11:30;;;;;;;13.17;12.63;;;27.60;55.80;;;;;;4992517;28;20503;-81
2022/06/11 16:14:00;;;;;;;12.47;11.87;;;27.60;56.50;;;;;;4992445;28;20948;-81
2022/06/11 16:16:30;;;;;;;12.63;12.07;;;27.40;56.40;;;;;;4992150;28;20450;-81
2022/06/11 16:19:16;;;;;;;12.10;11.20;;;27.30;56.70;;;;;;4992729;28;20446;-81
2022/06/11 16:21:54;;;;;;;11.87;11.27;;;27.30;57.10;;;;;;4992310;28;20482;-81
2022/06/11 16:24:21;;;;;;;11.93;11.23;;;27.30;57.00;;;;;;4992146;28;20462;-81
2022/06/11 16:26:48;;;;;;;12.83;12.30;;;27.30;56.70;;;;;;4991960;28;21323;-81
2022/06/11 16:29:21;;;;;;;12.93;12.20;;;27.30;57.00;;;;;;4992102;28;20455;-80
2022/06/11 16:31:48;;;;;;;12.00;11.30;;;27.40;57.10;;;;;;4992019;28;20451;-81
2022/06/11 16:34:17;;;;;;;13.30;12.60;;;27.30;57.70;;;;;;4992232;28;20550;-80
2022/06/11 16:36:47;;;;;;;13.07;12.47;;;27.40;57.60;;;;;;4992053;28;20487;-79
2022/06/11 16:39:31;;;;;;;12.67;12.00;;;27.50;57.80;;;;;;4991864;28;20876;-79
2022/06/11 16:44:46;;;;;;;12.10;11.60;;;27.60;57.60;;;;;;4991900;28;20425;-81
2022/06/11 16:47:15;;;;;;;12.80;12.10;;;27.60;57.90;;;;;;4991937;28;20939;-80
2022/06/11 16:58:02;;;;;;;13.00;12.27;;;27.30;59.40;;;;;;4991743;28;20493;-78
2022/06/11 17:00:40;;;;;;;12.67;12.07;;;27.20;59.10;;;;;;4991766;28;20461;-78
2022/06/11 17:03:08;;;;;;;12.00;11.47;;;27.20;59.10;;;;;;4990876;28;20512;-79
2022/06/11 17:05:53;;;;;;;13.53;12.90;;;27.10;59.80;;;;;;4991010;28;20450;-79
2022/06/11 17:08:23;;;;;;;12.40;11.90;;;27.10;59.90;;;;;;4991121;28;20457;-78
2022/06/11 17:11:01;;;;;;;12.40;11.80;;;27.10;60.00;;;;;;4990810;28;20458;-78
2022/06/11 17:13:31;;;;;;;13.00;12.40;;;27.00;60.50;;;;;;4991418;28;20506;-79
2022/06/11 17:16:01;;;;;;;12.67;11.83;;;27.00;60.80;;;;;;4990764;28;20451;-79
2022/06/11 17:18:32;;;;;;;11.70;11.20;;;27.00;60.70;;;;;;4991160;28;20450;-79
2022/06/11 17:21:02;;;;;;;12.50;11.70;;;27.00;60.50;;;;;;4990761;28;20517;-79
2022/06/11 17:23:34;;;;;;;12.53;11.87;;;27.00;60.90;;;;;;4990818;28;20490;-78
2022/06/11 17:26:05;;;;;;;12.80;12.10;;;26.90;61.20;;;;;;4990543;28;20490;-79
2022/06/11 17:28:34;;;;;;;12.50;12.00;;;26.90;61.60;;;;;;4990885;28;20454;-79
2022/06/11 17:31:01;;;;;;;10.97;10.57;;;26.90;61.10;;;;;;4990624;28;20451;-79
2022/06/11 17:33:28;;;;;;;12.30;11.70;;;26.90;61.70;;;;;;4991000;28;20483;-79
2022/06/11 17:35:57;;;;;;;12.67;11.90;;;26.80;61.60;;;;;;4990418;28;20459;-78